KSDB

Sandberg Airport

Sandberg, California, USA
METAR KSDB 191453Z AUTO 32010KT 10SM CLR 07/04 A3003 RMK AO2 SLP141 T00670039 55001
Observed Flight Rules
Jan-19 @ 14:53 UTC (31 minutes ago) Visual Flight Rules
Wind Visibility Clouds
320° at 10 knots 10 miles
  • Clear skies
Temperatures Readings
Current 7°C / 45°F
Dewpoint 4°C / 39°F
Humidity 81%
Altimeter 30.03" Hg
Pressure 1014.1 hPa
Elevation 1377
METAR KSDB 191453Z AUTO 32010KT 10SM CLR 07/04 A3003 RMK AO2 SLP141 T00670039 55001
Observed Flight Rules
Jan-19 @ 14:53 UTC
(31 minutes ago)
VFR
Wind Visibility
320° at 10 knots 10 miles
Clouds
  • Clear skies
Temperature Dewpoint
7°C / 45°F 4°C / 39°F
Humidity Altimeter Pressure
81% 30.03" Hg 1014.1 hPa